Time;durP1;ratioP1;P1;durP2;ratioP2;P2;SDS_P1;SDS_P2;PMS_P1;PMS_P2;Temp;Humidity;BMP_temperature;BMP_pressure;BME280_temperature;BME280_humidity;BME280_pressure;Samples;Min_cycle;Max_cycle;Signal;HPM_P1;HPM_P2
2022/09/05 00:01:42;;;;;;;;;;;26.20;42.40;25.00;101580.00;;;;5103947;27;20397;-67
2022/09/05 00:04:46;;;;;;;;;;;26.20;42.40;25.00;101584.00;;;;5102763;27;19923;-67
2022/09/05 00:07:35;;;;;;;;;;;26.20;42.50;25.00;101589.00;;;;5100905;27;20007;-67
2022/09/05 00:10:25;;;;;;;;;;;26.20;42.50;25.00;101592.00;;;;5103315;27;19922;-67
2022/09/05 00:13:23;;;;;;;;;;;26.30;42.50;25.00;101585.00;;;;5098865;27;20003;-67
2022/09/05 00:16:30;;;;;;;;;;;26.20;42.50;25.00;101583.00;;;;5101442;27;20266;-67
2022/09/05 00:19:57;;;;;;;;;;;26.20;42.50;25.00;101583.00;;;;5098302;27;19916;-67
2022/09/05 00:22:58;;;;;;;;;;;26.20;42.50;24.90;101581.00;;;;5019374;28;19948;-67
2022/09/05 00:26:02;;;;;;;;;;;26.20;42.50;24.90;101578.00;;;;5016296;28;19959;-67
2022/09/05 00:29:03;;;;;;;;;;;26.20;42.50;24.90;101580.00;;;;5088393;28;20581;-67
2022/09/05 00:31:58;;;;;;;;;;;26.20;42.50;24.90;101581.00;;;;5101191;27;20008;-67
2022/09/05 00:35:23;;;;;;;;;;;26.20;42.50;25.00;101581.00;;;;5096128;27;19912;-67
2022/09/05 00:38:15;;;;;;;;;;;26.20;42.50;24.90;101582.00;;;;5096150;27;20361;-67
2022/09/05 00:41:03;;;;;;;;;;;26.20;42.60;24.90;101580.00;;;;5089931;28;19922;-67
2022/09/05 00:43:49;;;;;;;;;;;26.10;42.50;24.90;101579.00;;;;5082415;28;19912;-67
2022/09/05 00:46:37;;;;;;;;;;;26.20;42.60;24.90;101580.00;;;;5107240;27;19920;-67
2022/09/05 00:49:28;;;;;;;;;;;26.20;42.60;24.90;101587.00;;;;5104433;27;19919;-67
2022/09/05 00:52:39;;;;;;;;;;;26.20;42.60;24.90;101580.00;;;;5082771;28;19966;-67
2022/09/05 00:56:02;;;;;;;;;;;26.20;42.60;24.90;101580.00;;;;5103409;27;19941;-67
2022/09/05 00:59:01;;;;;;;;;;;26.20;42.60;24.90;101579.00;;;;5100683;27;19912;-67
2022/09/05 01:02:11;;;;;;;;;;;26.20;42.60;24.90;101581.00;;;;5090841;28;19912;-67
2022/09/05 01:05:00;;;;;;;;;;;26.10;42.60;24.90;101574.00;;;;5102349;27;19919;-67
2022/09/05 01:08:23;;;;;;;;;;;26.10;43.30;24.90;101572.00;;;;5084836;27;19957;-68
2022/09/05 01:11:45;;;;;;;;;;;26.10;42.60;24.90;101566.00;;;;5107276;27;20389;-67
2022/09/05 01:14:57;;;;;;;;;;;26.10;42.60;24.90;101571.00;;;;5094154;28;20398;-67
2022/09/05 01:17:49;;;;;;;;;;;26.10;42.60;24.90;101574.00;;;;5098189;28;20292;-67
2022/09/05 01:20:48;;;;;;;;;;;26.10;42.70;24.90;101579.00;;;;5096845;28;19912;-67
2022/09/05 01:23:49;;;;;;;;;;;26.10;42.70;24.90;101573.00;;;;5072420;28;19925;-67
2022/09/05 01:27:13;;;;;;;;;;;26.10;42.70;24.90;101577.00;;;;5097958;28;20280;-67
2022/09/05 01:30:05;;;;;;;;;;;26.10;42.70;24.80;101576.00;;;;5092893;28;19916;-67
2022/09/05 01:33:18;;;;;;;;;;;26.10;42.70;24.80;101572.00;;;;5096278;28;19911;-67
2022/09/05 01:36:23;;;;;;;;;;;26.10;42.70;24.80;101573.00;;;;5099993;28;19965;-67
2022/09/05 01:39:16;;;;;;;;;;;26.10;42.70;24.80;101575.00;;;;5102538;27;20328;-67
2022/09/05 01:42:21;;;;;;;;;;;26.00;42.70;24.80;101573.00;;;;5084161;28;20314;-67
2022/09/05 01:45:23;;;;;;;;;;;26.00;42.70;24.80;101571.00;;;;5104281;27;20034;-67
2022/09/05 01:48:47;;;;;;;;;;;26.00;42.70;24.80;101575.00;;;;5102808;27;19918;-67
2022/09/05 01:51:59;;;;;;;;;;;26.00;42.70;24.80;101575.00;;;;5101920;27;19937;-67
2022/09/05 01:55:08;;;;;;;;;;;26.00;42.80;24.80;101578.00;;;;5087331;27;19916;-67
2022/09/05 01:58:12;;;;;;;;;;;26.00;42.70;24.80;101576.00;;;;5092238;27;20372;-67
2022/09/05 02:01:06;;;;;;;;;;;26.00;42.80;24.80;101574.00;;;;5097722;27;19912;-67
2022/09/05 02:04:25;;;;;;;;;;;26.00;42.80;24.80;101573.00;;;;5079952;28;19996;-67
2022/09/05 02:07:47;;;;;;;;;;;26.00;42.80;24.80;101577.00;;;;5093341;27;20040;-67
2022/09/05 02:10:57;;;;;;;;;;;26.00;42.80;24.80;101580.00;;;;5094987;28;19922;-67
2022/09/05 02:13:56;;;;;;;;;;;26.00;42.80;24.80;101580.00;;;;5092880;28;20003;-67
2022/09/05 02:16:43;;;;;;;;;;;26.00;42.80;24.70;101572.00;;;;5094279;28;20477;-67
2022/09/05 02:19:29;;;;;;;;;;;25.90;42.80;24.80;101573.00;;;;5081764;28;19912;-67
2022/09/05 02:22:20;;;;;;;;;;;25.90;42.80;24.70;101578.00;;;;5094774;27;19923;-67
2022/09/05 02:25:15;;;;;;;;;;;25.90;42.80;24.80;101579.00;;;;5088134;28;19911;-67
2022/09/05 02:28:24;;;;;;;;;;;26.00;42.90;24.80;101574.00;;;;5079518;27;20010;-67
2022/09/05 02:31:18;;;;;;;;;;;25.90;42.80;24.70;101584.00;;;;5083978;27;20266;-67
2022/09/05 02:34:11;;;;;;;;;;;25.90;42.80;24.70;101581.00;;;;5076768;28;19922;-67
2022/09/05 02:37:18;;;;;;;;;;;25.90;42.80;24.80;101581.00;;;;5098495;28;19918;-67
2022/09/05 02:40:20;;;;;;;;;;;25.90;42.80;24.70;101571.00;;;;5079354;28;20392;-67
2022/09/05 02:43:45;;;;;;;;;;;25.90;42.80;24.70;101579.00;;;;5097994;27;19923;-67
2022/09/05 02:46:36;;;;;;;;;;;25.90;42.80;24.70;101578.00;;;;5087876;28;19920;-67
2022/09/05 02:49:45;;;;;;;;;;;25.90;42.80;24.70;101587.00;;;;5109191;27;19916;-67
2022/09/05 02:52:31;;;;;;;;;;;25.90;42.90;24.70;101579.00;;;;5092465;28;19964;-67
2022/09/05 02:55:36;;;;;;;;;;;25.90;42.80;24.70;101577.00;;;;5078293;28;19955;-67
2022/09/05 02:58:43;;;;;;;;;;;25.90;42.80;24.70;101575.00;;;;5099654;27;20010;-67
2022/09/05 03:02:16;;;;;;;;;;;25.90;42.80;24.70;101580.00;;;;5083266;28;19916;-67
2022/09/05 03:05:21;;;;;;;;;;;25.90;42.90;24.70;101574.00;;;;5085471;28;20270;-67
2022/09/05 03:08:44;;;;;;;;;;;25.90;42.90;24.70;101574.00;;;;5091183;28;19920;-67
2022/09/05 03:11:46;;;;;;;;;;;25.90;42.90;24.70;101576.00;;;;5094929;28;19930;-67
2022/09/05 03:14:44;;;;;;;;;;;25.90;42.90;24.70;101574.00;;;;5105188;28;19951;-67
2022/09/05 03:17:36;;;;;;;;;;;25.90;42.90;24.70;101583.00;;;;5093884;28;19923;-67
2022/09/05 03:20:50;;;;;;;;;;;25.90;42.90;24.70;101573.00;;;;5102555;28;19912;-67
2022/09/05 03:24:04;;;;;;;;;;;25.90;42.90;24.70;101584.00;;;;5096715;28;19919;-67
2022/09/05 03:27:07;;;;;;;;;;;25.90;42.90;24.70;101581.00;;;;5095444;28;20546;-67
2022/09/05 03:29:59;;;;;;;;;;;25.80;42.80;24.70;101583.00;;;;5082985;28;19922;-67
2022/09/05 03:32:53;;;;;;;;;;;25.90;43.60;24.70;101582.00;;;;5092641;28;19926;-67
2022/09/05 03:36:05;;;;;;;;;;;25.80;42.80;24.70;101580.00;;;;5090617;28;19951;-67
2022/09/05 03:39:01;;;;;;;;;;;25.90;42.90;24.70;101581.00;;;;5093834;28;19916;-67
2022/09/05 03:42:11;;;;;;;;;;;25.80;42.80;24.70;101587.00;;;;5065915;28;20345;-67
2022/09/05 03:45:35;;;;;;;;;;;25.90;42.90;24.70;101584.00;;;;5107200;28;19912;-67
2022/09/05 03:48:36;;;;;;;;;;;25.90;42.90;24.70;101588.00;;;;5098532;28;19911;-67
2022/09/05 03:51:51;;;;;;;;;;;25.90;42.90;24.70;101581.00;;;;5094921;28;19911;-67
2022/09/05 03:54:46;;;;;;;;;;;25.90;42.90;24.70;101590.00;;;;5103765;28;19938;-67
2022/09/05 03:57:34;;;;;;;;;;;25.90;42.90;24.70;101586.00;;;;5096849;28;19920;-67
2022/09/05 04:00:21;;;;;;;;;;;25.80;42.90;24.70;101593.00;;;;5094049;28;20024;-67
2022/09/05 04:03:32;;;;;;;;;;;25.90;43.00;24.70;101590.00;;;;5084313;28;19956;-67
2022/09/05 04:06:38;;;;;;;;;;;25.80;42.90;24.70;101591.00;;;;5094203;28;20019;-67
2022/09/05 04:09:38;;;;;;;;;;;25.80;42.90;24.70;101599.00;;;;5098537;28;19923;-67
2022/09/05 04:12:37;;;;;;;;;;;25.80;42.90;24.70;101608.00;;;;5093108;28;19918;-67
2022/09/05 04:15:41;;;;;;;;;;;25.80;42.90;24.70;101605.00;;;;5078527;28;19920;-67
2022/09/05 04:18:32;;;;;;;;;;;25.90;43.00;24.70;101607.00;;;;5082974;28;19916;-67
2022/09/05 04:21:29;;;;;;;;;;;25.90;43.00;24.70;101609.00;;;;5083363;28;20052;-67
2022/09/05 04:24:25;;;;;;;;;;;25.80;42.90;24.70;101612.00;;;;5073856;28;20354;-67
2022/09/05 04:27:32;;;;;;;;;;;25.80;42.90;24.70;101609.00;;;;5086522;28;19915;-67
2022/09/05 04:30:33;;;;;;;;;;;25.90;43.00;24.70;101612.00;;;;5092425;28;20448;-67
2022/09/05 04:33:31;;;;;;;;;;;25.80;42.90;24.70;101613.00;;;;5094535;28;19912;-67
2022/09/05 04:36:26;;;;;;;;;;;25.80;42.90;24.60;101604.00;;;;5095292;28;20384;-67
2022/09/05 04:39:18;;;;;;;;;;;25.80;42.90;24.60;101606.00;;;;5089422;28;19916;-67
2022/09/05 04:42:03;;;;;;;;;;;25.80;42.90;24.70;101601.00;;;;5099501;27;19915;-67
2022/09/05 04:44:52;;;;;;;;;;;25.80;42.90;24.60;101608.00;;;;5097830;28;19962;-67
2022/09/05 04:47:49;;;;;;;;;;;25.90;43.00;24.60;101606.00;;;;5083725;28;20284;-67
2022/09/05 04:51:03;;;;;;;;;;;25.80;43.00;24.60;101615.00;;;;5091997;28;19920;-67
2022/09/05 04:54:15;;;;;;;;;;;25.80;42.90;24.60;101608.00;;;;5094389;27;19923;-67
2022/09/05 04:57:09;;;;;;;;;;;25.80;42.90;24.60;101621.00;;;;5095194;27;20389;-67
2022/09/05 05:00:04;;;;;;;;;;;25.80;42.90;24.60;101609.00;;;;5089947;28;19911;-67
2022/09/05 05:02:58;;;;;;;;;;;25.80;43.00;24.60;101623.00;;;;5089801;28;19985;-67
2022/09/05 05:05:47;;;;;;;;;;;25.80;43.00;24.60;101620.00;;;;5105723;27;19915;-67
2022/09/05 05:08:41;;;;;;;;;;;25.80;43.00;24.60;101623.00;;;;5100234;28;19916;-67
2022/09/05 05:11:43;;;;;;;;;;;25.80;43.00;24.60;101622.00;;;;5091852;27;19957;-67
2022/09/05 05:14:48;;;;;;;;;;;25.80;43.00;24.60;101622.00;;;;5087908;27;20377;-67
2022/09/05 05:17:39;;;;;;;;;;;25.80;43.00;24.60;101630.00;;;;5085772;28;19912;-67
2022/09/05 05:20:33;;;;;;;;;;;25.80;43.00;24.60;101625.00;;;;5084135;27;20318;-67
2022/09/05 05:23:29;;;;;;;;;;;25.80;43.00;24.60;101622.00;;;;5073592;28;19920;-67
2022/09/05 05:26:43;;;;;;;;;;;25.80;43.00;24.60;101627.00;;;;5086484;28;19973;-67
2022/09/05 05:29:43;;;;;;;;;;;25.80;43.10;24.60;101626.00;;;;5110073;27;19965;-67
2022/09/05 05:32:34;;;;;;;;;;;25.80;43.00;24.60;101631.00;;;;5096804;28;19915;-67
2022/09/05 05:35:38;;;;;;;;;;;25.80;43.00;24.60;101628.00;;;;5076848;28;19926;-67
2022/09/05 05:38:42;;;;;;;;;;;25.80;43.00;24.60;101634.00;;;;5087399;28;20299;-67
2022/09/05 05:41:48;;;;;;;;;;;25.80;43.00;24.60;101633.00;;;;5086526;27;20312;-67
2022/09/05 05:44:35;;;;;;;;;;;25.80;43.10;24.60;101638.00;;;;5103477;28;19959;-67
2022/09/05 05:47:22;;;;;;;;;;;25.80;43.00;24.60;101648.00;;;;5091970;28;19998;-67
2022/09/05 05:50:39;;;;;;;;;;;25.80;43.10;24.60;101646.00;;;;5106556;27;19915;-67
2022/09/05 05:53:48;;;;;;;;;;;25.80;43.10;24.60;101647.00;;;;5097348;27;20002;-67
2022/09/05 05:56:53;;;;;;;;;;;25.80;43.10;24.60;101653.00;;;;5098469;27;20498;-67
2022/09/05 05:59:55;;;;;;;;;;;25.80;43.10;24.60;101654.00;;;;5090048;27;19999;-67
2022/09/05 06:03:11;;;;;;;;;;;25.80;43.10;24.60;101654.00;;;;5096379;27;19912;-67
2022/09/05 06:06:22;;;;;;;;;;;25.80;43.10;24.60;101656.00;;;;5098882;27;19923;-67
2022/09/05 06:09:26;;;;;;;;;;;25.80;43.00;24.60;101660.00;;;;5100972;27;19920;-67
2022/09/05 06:12:44;;;;;;;;;;;25.80;43.10;24.60;101668.00;;;;5101674;27;19920;-67
2022/09/05 06:15:36;;;;;;;;;;;25.80;43.10;24.60;101656.00;;;;5093370;28;19920;-67
2022/09/05 06:18:41;;;;;;;;;;;25.80;43.10;24.60;101665.00;;;;5090625;28;20326;-67
2022/09/05 06:22:05;;;;;;;;;;;25.80;43.10;24.60;101662.00;;;;5093754;28;20014;-67
2022/09/05 06:25:18;;;;;;;;;;;25.80;43.00;24.60;101658.00;;;;5094648;28;19961;-67
2022/09/05 06:28:14;;;;;;;;;;;25.90;43.10;24.60;101653.00;;;;5098766;27;19942;-67
2022/09/05 06:31:29;;;;;;;;;;;25.80;43.00;24.60;101656.00;;;;5085888;28;19924;-67
2022/09/05 06:34:55;;;;;;;;;;;25.80;43.00;24.60;101655.00;;;;5083748;28;19916;-67
2022/09/05 06:37:47;;;;;;;;;;;25.80;43.10;24.60;101666.00;;;;5087111;28;19999;-67
2022/09/05 06:40:53;;;;;;;;;;;25.90;43.10;24.60;101667.00;;;;5095574;28;19985;-67
2022/09/05 06:44:16;;;;;;;;;;;25.80;43.10;24.60;101667.00;;;;5093769;28;19948;-67
2022/09/05 06:47:05;;;;;;;;;;;25.80;43.00;24.60;101668.00;;;;5094233;28;19999;-67
2022/09/05 06:50:04;;;;;;;;;;;25.80;43.00;24.60;101664.00;;;;5081460;28;19998;-67
2022/09/05 06:53:02;;;;;;;;;;;25.90;43.10;24.60;101668.00;;;;5071320;28;20006;-67
2022/09/05 06:56:15;;;;;;;;;;;25.90;43.10;24.60;101654.00;;;;5096834;28;19911;-67
2022/09/05 06:59:34;;;;;;;;;;;25.90;43.10;24.70;101662.00;;;;5093034;28;20349;-67
2022/09/05 07:02:24;;;;;;;;;;;25.90;43.10;24.60;101656.00;;;;5065916;28;19918;-67
2022/09/05 07:05:34;;;;;;;;;;;25.90;43.10;24.60;101656.00;;;;5083686;28;19927;-67
2022/09/05 07:08:27;;;;;;;;;;;25.90;43.00;24.60;101653.00;;;;5093608;28;19919;-67
2022/09/05 07:11:16;;;;;;;;;;;25.90;43.10;24.70;101658.00;;;;5097946;28;20439;-67
2022/09/05 07:14:03;;;;;;;;;;;25.90;43.00;24.70;101657.00;;;;5093549;28;19918;-67
2022/09/05 07:17:08;;;;;;;;;;;26.00;43.10;24.70;101658.00;;;;5076969;28;19912;-67
2022/09/05 07:19:58;;;;;;;;;;;25.90;43.00;24.70;101661.00;;;;5102869;27;20323;-67
2022/09/05 07:23:29;;;;;;;;;;;26.00;43.10;24.70;101667.00;;;;5108821;27;19923;-67
2022/09/05 07:26:15;;;;;;;;;;;26.00;43.10;24.70;101666.00;;;;5084172;28;19954;-67
2022/09/05 07:29:04;;;;;;;;;;;26.00;43.10;24.70;101666.00;;;;5100744;28;19933;-67
2022/09/05 07:31:51;;;;;;;;;;;26.00;43.00;24.70;101666.00;;;;5081701;28;20493;-67
2022/09/05 07:34:37;;;;;;;;;;;26.00;43.00;24.70;101669.00;;;;5083203;28;19951;-67
2022/09/05 07:37:40;;;;;;;;;;;26.00;43.00;24.70;101671.00;;;;5112185;28;19992;-67
2022/09/05 07:40:26;;;;;;;;;;;26.00;43.00;24.70;101675.00;;;;5082907;28;19919;-67
2022/09/05 07:43:17;;;;;;;;;;;26.00;43.00;24.70;101678.00;;;;5089105;28;19915;-67
2022/09/05 07:46:10;;;;;;;;;;;26.00;43.00;24.70;101685.00;;;;5108463;28;19951;-67
2022/09/05 07:48:59;;;;;;;;;;;26.00;43.10;24.70;101680.00;;;;5096209;28;19920;-67
2022/09/05 07:51:59;;;;;;;;;;;26.00;43.00;24.70;101675.00;;;;5110489;28;19916;-67
2022/09/05 07:54:46;;;;;;;;;;;26.00;43.10;24.70;101676.00;;;;5085440;28;19912;-67
2022/09/05 07:57:36;;;;;;;;;;;26.00;43.10;24.70;101671.00;;;;5083507;28;20266;-67
2022/09/05 08:00:23;;;;;;;;;;;26.00;43.10;24.70;101678.00;;;;5071788;28;19911;-67
2022/09/05 08:03:11;;;;;;;;;;;26.00;43.10;24.70;101680.00;;;;5069097;28;20002;-67
2022/09/05 08:05:59;;;;;;;;;;;26.00;43.10;24.70;101675.00;;;;5066181;28;19916;-67
2022/09/05 08:09:01;;;;;;;;;;;26.00;43.10;24.70;101671.00;;;;5092160;28;19915;-67
2022/09/05 08:11:46;;;;;;;;;;;26.00;43.10;24.70;101675.00;;;;5085915;28;19919;-67
2022/09/05 08:14:44;;;;;;;;;;;26.00;43.10;24.70;101672.00;;;;5098384;28;19911;-67
2022/09/05 08:17:30;;;;;;;;;;;26.00;43.10;24.70;101668.00;;;;5096041;28;19963;-67
2022/09/05 08:20:25;;;;;;;;;;;26.00;43.00;24.70;101663.00;;;;5066174;27;19938;-67
2022/09/05 08:23:33;;;;;;;;;;;26.00;43.10;24.70;101677.00;;;;5102978;27;20302;-67
2022/09/05 08:26:31;;;;;;;;;;;26.00;43.10;24.70;101679.00;;;;5099044;27;19919;-67
2022/09/05 08:29:26;;;;;;;;;;;26.00;43.10;24.70;101672.00;;;;5103688;27;19920;-67
2022/09/05 08:32:34;;;;;;;;;;;26.00;43.10;24.70;101675.00;;;;5103861;27;19912;-67
2022/09/05 08:35:51;;;;;;;;;;;26.00;43.10;24.70;101680.00;;;;5105471;27;19950;-67
2022/09/05 08:38:39;;;;;;;;;;;26.00;43.10;24.70;101672.00;;;;5087404;27;19938;-67
2022/09/05 08:41:33;;;;;;;;;;;26.00;43.10;24.70;101667.00;;;;5095886;27;19994;-67
2022/09/05 08:44:25;;;;;;;;;;;26.00;43.10;24.70;101672.00;;;;5091931;27;19972;-67
2022/09/05 08:47:33;;;;;;;;;;;26.00;43.10;24.70;101665.00;;;;5076576;28;19924;-67
2022/09/05 08:50:34;;;;;;;;;;;26.00;43.10;24.70;101659.00;;;;5107197;28;19927;-67
2022/09/05 08:53:42;;;;;;;;;;;26.10;43.10;24.70;101657.00;;;;5097373;27;19926;-67
2022/09/05 08:56:36;;;;;;;;;;;26.00;43.10;24.70;101650.00;;;;5101113;27;19912;-67
2022/09/05 08:59:39;;;;;;;;;;;26.00;43.10;24.70;101647.00;;;;5097895;28;19912;-67
2022/09/05 09:02:37;;;;;;;;;;;26.10;43.20;24.70;101652.00;;;;5077825;27;19918;-67
2022/09/05 09:05:54;;;;;;;;;;;26.00;43.10;24.70;101650.00;;;;5096743;27;19961;-67
2022/09/05 09:09:05;;;;;;;;;;;26.00;43.80;24.70;101647.00;;;;5105148;27;19959;-67
2022/09/05 09:12:11;;;;;;;;;;;26.00;43.10;24.70;101644.00;;;;5101508;27;20398;-67
2022/09/05 09:15:33;;;;;;;;;;;26.00;43.10;24.70;101638.00;;;;5106603;27;20281;-67
2022/09/05 09:18:19;;;;;;;;;;;26.00;43.20;24.70;101642.00;;;;5108085;27;19953;-67
2022/09/05 09:21:39;;;;;;;;;;;26.10;43.20;24.70;101635.00;;;;5084670;27;19915;-67
2022/09/05 09:24:49;;;;;;;;;;;26.00;43.20;24.70;101626.00;;;;5079322;28;20398;-67
2022/09/05 09:27:39;;;;;;;;;;;26.00;43.10;24.70;101628.00;;;;5086452;27;19992;-67
2022/09/05 09:30:27;;;;;;;;;;;26.10;43.20;24.70;101631.00;;;;5078982;28;20006;-67
2022/09/05 09:33:19;;;;;;;;;;;26.00;43.10;24.70;101633.00;;;;5078178;28;19970;-67
2022/09/05 09:36:12;;;;;;;;;;;26.00;43.10;24.70;101632.00;;;;5090331;28;20010;-67
2022/09/05 09:39:01;;;;;;;;;;;26.10;43.10;24.70;101630.00;;;;5070285;28;19916;-67
2022/09/05 09:42:27;;;;;;;;;;;26.10;43.10;24.70;101629.00;;;;5099100;28;19916;-67
2022/09/05 09:45:40;;;;;;;;;;;26.10;43.20;24.70;101621.00;;;;5094286;28;19916;-67
2022/09/05 09:48:38;;;;;;;;;;;26.10;43.20;24.70;101619.00;;;;5100038;28;19918;-67
2022/09/05 09:51:42;;;;;;;;;;;26.10;43.20;24.70;101616.00;;;;5094910;27;19922;-67
2022/09/05 09:54:50;;;;;;;;;;;26.10;43.20;24.70;101609.00;;;;5097130;28;19912;-67
2022/09/05 09:57:59;;;;;;;;;;;26.10;43.20;24.70;101614.00;;;;5095493;28;20007;-67
2022/09/05 10:00:50;;;;;;;;;;;26.10;43.20;24.70;101601.00;;;;5097991;28;19955;-67
2022/09/05 10:03:50;;;;;;;;;;;26.00;43.20;24.70;101615.00;;;;5080541;28;20320;-67
2022/09/05 10:06:42;;;;;;;;;;;26.10;43.70;24.70;101606.00;;;;5082699;28;19955;-67
2022/09/05 10:09:37;;;;;;;;;;;26.10;43.20;24.70;101607.00;;;;5090714;28;19923;-67
2022/09/05 10:12:48;;;;;;;;;;;26.10;43.20;24.70;101607.00;;;;5072204;28;20430;-67
2022/09/05 10:15:45;;;;;;;;;;;26.10;43.30;24.70;101593.00;;;;5095526;28;20388;-67
2022/09/05 10:19:17;;;;;;;;;;;26.10;43.30;24.70;101594.00;;;;5086709;28;19941;-67
2022/09/05 10:22:22;;;;;;;;;;;26.10;43.20;24.70;101595.00;;;;5043055;28;19988;-67
2022/09/05 10:25:28;;;;;;;;;;;26.10;43.20;24.70;101583.00;;;;5088651;27;19911;-67
2022/09/05 10:28:43;;;;;;;;;;;26.10;43.20;24.70;101591.00;;;;5093756;27;20435;-67
2022/09/05 10:31:44;;;;;;;;;;;26.10;43.20;24.80;101589.00;;;;5070419;27;19920;-67
2022/09/05 10:34:30;;;;;;;;;;;26.10;43.20;24.70;101586.00;;;;5099635;27;19916;-67
2022/09/05 10:37:16;;;;;;;;;;;26.10;43.20;24.70;101573.00;;;;5079875;28;19922;-67
2022/09/05 10:40:03;;;;;;;;;;;26.10;43.90;24.80;101574.00;;;;5102723;27;19916;-67
2022/09/05 10:42:51;;;;;;;;;;;26.10;43.30;24.80;101576.00;;;;5068229;28;19920;-67
2022/09/05 10:45:55;;;;;;;;;;;26.10;43.30;24.80;101573.00;;;;5085770;28;19912;-67
2022/09/05 10:48:49;;;;;;;;;;;26.20;43.30;24.80;101563.00;;;;5097935;28;20328;-67
2022/09/05 10:51:51;;;;;;;;;;;26.20;43.40;24.80;101571.00;;;;5082785;27;19915;-67
2022/09/05 10:54:53;;;;;;;;;;;26.20;43.30;24.80;101574.00;;;;5105681;27;19912;-67
2022/09/05 10:57:44;;;;;;;;;;;26.20;43.30;24.80;101566.00;;;;5073657;28;19912;-67
2022/09/05 11:00:55;;;;;;;;;;;26.20;43.30;24.80;101559.00;;;;5089644;28;20471;-67
2022/09/05 11:04:14;;;;;;;;;;;26.20;43.30;24.80;101562.00;;;;5092819;28;19916;-67
2022/09/05 11:07:11;;;;;;;;;;;26.20;43.30;24.80;101561.00;;;;5103508;27;20065;-67
2022/09/05 11:10:14;;;;;;;;;;;26.20;43.30;24.80;101553.00;;;;5100102;28;19965;-67
2022/09/05 11:13:24;;;;;;;;;;;26.20;43.30;24.80;101548.00;;;;5097836;28;19916;-67
2022/09/05 11:16:44;;;;;;;;;;;26.20;43.40;24.80;101552.00;;;;5104080;27;20118;-67
2022/09/05 11:19:41;;;;;;;;;;;26.20;43.30;24.80;101549.00;;;;5097945;28;19919;-67
2022/09/05 11:22:27;;;;;;;;;;;26.20;43.20;24.80;101546.00;;;;5095804;28;19912;-67
2022/09/05 11:25:21;;;;;;;;;;;26.30;43.30;24.80;101555.00;;;;5102958;28;19912;-67
2022/09/05 11:28:13;;;;;;;;;;;26.20;43.20;24.80;101545.00;;;;5096858;28;20003;-67
2022/09/05 11:30:59;;;;;;;;;;;26.20;43.30;24.80;101545.00;;;;5075425;28;19920;-67
2022/09/05 11:34:11;;;;;;;;;;;26.30;43.30;24.80;101539.00;;;;5081506;28;19915;-67
2022/09/05 11:36:58;;;;;;;;;;;26.30;43.30;24.80;101539.00;;;;5094223;28;20357;-67
2022/09/05 11:40:09;;;;;;;;;;;26.30;43.20;24.80;101537.00;;;;5086283;28;19911;-67
2022/09/05 11:43:16;;;;;;;;;;;26.30;43.20;24.80;101535.00;;;;5096324;28;19911;-67
2022/09/05 11:46:24;;;;;;;;;;;26.30;43.20;24.80;101535.00;;;;5103013;28;19919;-67
2022/09/05 11:49:19;;;;;;;;;;;26.30;43.20;24.80;101536.00;;;;5104360;28;19942;-68
2022/09/05 11:52:42;;;;;;;;;;;26.30;43.20;24.80;101534.00;;;;5098618;28;20235;-68
2022/09/05 11:55:51;;;;;;;;;;;26.30;43.20;24.80;101528.00;;;;5100184;28;19912;-67
2022/09/05 11:58:49;;;;;;;;;;;26.30;43.20;24.80;101531.00;;;;5094147;28;20011;-67
2022/09/05 12:01:51;;;;;;;;;;;26.40;43.20;24.80;101530.00;;;;5086251;28;20292;-67
2022/09/05 12:05:06;;;;;;;;;;;26.30;43.20;24.80;101529.00;;;;5094972;28;19922;-67
2022/09/05 12:08:04;;;;;;;;;;;26.30;43.20;24.80;101527.00;;;;5102296;28;19915;-67
2022/09/05 12:11:07;;;;;;;;;;;26.30;43.10;24.80;101529.00;;;;5092125;28;19919;-67
2022/09/05 12:14:12;;;;;;;;;;;26.40;43.20;24.80;101526.00;;;;5087590;28;19916;-67
2022/09/05 12:17:02;;;;;;;;;;;26.30;43.10;24.80;101531.00;;;;5096645;28;19915;-67
2022/09/05 12:19:56;;;;;;;;;;;26.30;43.10;24.80;101526.00;;;;5102781;28;19974;-67
2022/09/05 12:23:01;;;;;;;;;;;26.30;43.20;24.80;101521.00;;;;5084802;28;19916;-67
2022/09/05 12:26:11;;;;;;;;;;;26.40;43.20;24.80;101521.00;;;;5080791;28;19921;-67
2022/09/05 12:28:59;;;;;;;;;;;26.40;43.20;24.80;101521.00;;;;5096345;28;19919;-67
2022/09/05 12:31:49;;;;;;;;;;;26.40;43.30;24.90;101520.00;;;;5097757;28;20002;-67
2022/09/05 12:34:50;;;;;;;;;;;26.30;43.20;24.90;101521.00;;;;5092832;28;19948;-67
2022/09/05 12:37:38;;;;;;;;;;;26.30;43.20;24.80;101515.00;;;;5091262;28;20428;-68
2022/09/05 12:40:30;;;;;;;;;;;26.30;43.10;24.90;101511.00;;;;5095272;28;19911;-67
2022/09/05 12:43:16;;;;;;;;;;;26.30;43.10;24.90;101516.00;;;;5076053;28;19931;-67
2022/09/05 12:46:12;;;;;;;;;;;26.30;43.20;24.90;101505.00;;;;5081735;28;19912;-67
2022/09/05 12:49:05;;;;;;;;;;;26.40;43.30;24.90;101506.00;;;;5080670;28;20186;-67
2022/09/05 12:51:58;;;;;;;;;;;26.30;43.20;24.90;101508.00;;;;5087545;28;19916;-67
2022/09/05 12:54:50;;;;;;;;;;;26.30;43.20;24.90;101507.00;;;;5106779;27;20003;-67
2022/09/05 12:57:39;;;;;;;;;;;26.30;43.10;24.90;101502.00;;;;5088061;28;19916;-67
2022/09/05 13:00:25;;;;;;;;;;;26.30;43.10;24.90;101496.00;;;;5090104;27;19937;-67
2022/09/05 13:03:16;;;;;;;;;;;26.40;43.20;24.90;101501.00;;;;5105219;27;19916;-67
2022/09/05 13:06:08;;;;;;;;;;;26.40;43.90;24.90;101504.00;;;;5089076;28;19916;-67
2022/09/05 13:09:03;;;;;;;;;;;26.40;43.20;24.90;101495.00;;;;5113397;27;19943;-67
2022/09/05 13:12:18;;;;;;;;;;;26.40;43.40;24.90;101493.00;;;;5088468;28;20167;-68
2022/09/05 13:15:10;;;;;;;;;;;26.40;43.20;24.90;101498.00;;;;5106109;27;19919;-67
2022/09/05 13:17:58;;;;;;;;;;;26.40;43.20;24.90;101495.00;;;;5098154;27;20308;-67
2022/09/05 13:20:50;;;;;;;;;;;26.40;43.20;24.90;101489.00;;;;5103882;27;19915;-67
2022/09/05 13:23:46;;;;;;;;;;;26.40;43.20;24.90;101487.00;;;;5078712;28;19962;-67
2022/09/05 13:26:52;;;;;;;;;;;26.40;43.20;24.90;101493.00;;;;5100448;27;19916;-67
2022/09/05 13:29:53;;;;;;;;;;;26.40;43.20;24.90;101484.00;;;;5101676;27;19920;-67
2022/09/05 13:32:48;;;;;;;;;;;26.50;43.20;24.90;101480.00;;;;5084026;28;20324;-67
2022/09/05 13:35:35;;;;;;;;;;;26.50;43.20;25.00;101468.00;;;;5072903;28;19912;-67
2022/09/05 13:38:27;;;;;;;;;;;26.50;43.20;24.90;101475.00;;;;5083596;28;20257;-67
2022/09/05 13:41:16;;;;;;;;;;;26.50;43.20;25.00;101486.00;;;;5092523;28;19919;-67
2022/09/05 13:44:10;;;;;;;;;;;26.50;43.20;25.00;101486.00;;;;5087021;27;20136;-67
2022/09/05 13:47:08;;;;;;;;;;;26.50;43.20;25.00;101474.00;;;;5088103;28;20384;-67
2022/09/05 13:50:01;;;;;;;;;;;26.50;43.20;25.00;101473.00;;;;5096720;28;19969;-67
2022/09/05 13:53:36;;;;;;;;;;;26.50;43.10;25.00;101466.00;;;;5093621;28;20365;-67
2022/09/05 13:56:25;;;;;;;;;;;26.50;43.10;25.00;101457.00;;;;5089168;28;19922;-68
2022/09/05 13:59:13;;;;;;;;;;;26.50;43.20;25.00;101453.00;;;;5088284;28;19926;-67
2022/09/05 14:02:18;;;;;;;;;;;26.50;43.10;25.00;101446.00;;;;5098219;27;19923;-67
2022/09/05 14:05:26;;;;;;;;;;;26.50;43.10;25.00;101436.00;;;;5085786;27;19951;-67
2022/09/05 14:08:32;;;;;;;;;;;26.50;43.10;25.00;101433.00;;;;5099303;27;20510;-68
2022/09/05 14:11:40;;;;;;;;;;;26.50;43.30;25.00;101433.00;;;;5102983;28;19920;-67
2022/09/05 14:14:43;;;;;;;;;;;26.50;43.10;25.00;101430.00;;;;5098133;28;19935;-67
2022/09/05 14:17:36;;;;;;;;;;;26.60;43.20;25.00;101431.00;;;;5077692;28;19962;-67
2022/09/05 14:23:54;;;;;;;;;;;26.60;43.20;25.00;101432.00;;;;5106773;27;19911;-67
2022/09/05 14:26:49;;;;;;;;;;;26.50;43.10;25.00;101430.00;;;;5082730;28;19920;-67
2022/09/05 14:29:48;;;;;;;;;;;26.60;43.10;25.00;101424.00;;;;5078880;28;19935;-67
2022/09/05 14:32:55;;;;;;;;;;;26.60;43.10;25.00;101429.00;;;;5104811;27;19912;-67
2022/09/05 14:35:48;;;;;;;;;;;26.60;43.10;25.00;101413.00;;;;5086271;27;19916;-67